Time;durP1;ratioP1;P1;durP2;ratioP2;P2;SDS_P1;SDS_P2;PMS_P1;PMS_P2;Temp;Humidity;BMP_temperature;BMP_pressure;BME280_temperature;BME280_humidity;BME280_pressure;Samples;Min_cycle;Max_cycle;Signal;HPM_P1;HPM_P2
2024/04/04 00:01:49;;;;;;;8.60;2.97;;;;;;;11.12;100.00;100581.75;5114266;27;20047;-70
2024/04/04 00:04:36;;;;;;;6.07;2.30;;;;;;;11.13;100.00;100586.09;5105913;27;20074;-71
2024/04/04 00:07:22;;;;;;;10.18;2.80;;;;;;;11.11;100.00;100583.63;5075023;28;20120;-71
2024/04/04 00:10:10;;;;;;;7.45;2.63;;;;;;;11.12;100.00;100574.38;5070801;28;20082;-72
2024/04/04 00:12:58;;;;;;;10.45;2.72;;;;;;;11.12;100.00;100571.66;5079932;28;20039;-71
2024/04/04 00:15:45;;;;;;;8.77;2.53;;;;;;;11.13;100.00;100569.75;5065421;28;20043;-71
2024/04/04 00:18:32;;;;;;;7.97;2.53;;;;;;;11.13;100.00;100569.75;5045438;28;20392;-72
2024/04/04 00:21:19;;;;;;;9.30;2.95;;;;;;;11.13;100.00;100564.28;5084502;28;20366;-72
2024/04/04 00:24:07;;;;;;;8.90;2.17;;;;;;;11.12;100.00;100558.03;5098288;28;20168;-71
2024/04/04 00:26:54;;;;;;;7.85;2.58;;;;;;;11.12;100.00;100558.03;5082166;27;20092;-71
2024/04/04 00:29:41;;;;;;;10.55;2.67;;;;;;;11.09;100.00;100553.13;5078421;28;20391;-71
2024/04/04 00:32:28;;;;;;;9.50;2.47;;;;;;;11.08;100.00;100551.47;5079015;28;20055;-73
2024/04/04 00:35:16;;;;;;;6.82;2.53;;;;;;;11.09;100.00;100542.22;5078629;28;20032;-71
2024/04/04 00:38:03;;;;;;;11.50;3.05;;;;;;;11.06;100.00;100548.22;5066711;28;20070;-72
2024/04/04 00:40:50;;;;;;;11.20;2.67;;;;;;;11.06;100.00;100540.88;5064448;28;20484;-71
2024/04/04 00:43:37;;;;;;;9.43;2.80;;;;;;;11.06;100.00;100543.59;5050650;28;20063;-71
2024/04/04 00:46:25;;;;;;;9.25;2.75;;;;;;;11.09;100.00;100551.22;5064243;28;20098;-71
2024/04/04 00:49:12;;;;;;;10.00;2.78;;;;;;;11.09;100.00;100542.22;5050111;28;20047;-71
2024/04/04 00:52:01;;;;;;;5.80;2.33;;;;;;;11.16;100.00;100533.72;5052470;28;20488;-71
2024/04/04 00:54:48;;;;;;;8.15;2.30;;;;;;;11.15;100.00;100534.84;5065031;28;20048;-70
2024/04/04 00:57:36;;;;;;;8.30;2.53;;;;;;;11.09;100.00;100534.84;5050966;28;20059;-71
2024/04/04 01:00:24;;;;;;;11.80;2.75;;;;;;;11.11;100.00;100529.09;5072864;28;20093;-71
2024/04/04 01:03:11;;;;;;;8.35;2.72;;;;;;;11.11;100.00;100522.84;5065507;28;20044;-71
2024/04/04 01:05:58;;;;;;;9.45;2.90;;;;;;;11.10;100.00;100516.59;5053952;28;20121;-70
2024/04/04 01:08:45;;;;;;;7.55;2.40;;;;;;;11.08;100.00;100507.84;5082593;28;20040;-71
2024/04/04 01:11:32;;;;;;;6.93;2.33;;;;;;;11.05;100.00;100503.78;5096183;28;20052;-72
2024/04/04 01:14:19;;;;;;;7.55;2.53;;;;;;;11.05;100.00;100509.22;5101582;28;20077;-72
2024/04/04 01:17:06;;;;;;;5.25;1.92;;;;;;;11.08;100.00;100495.03;5095715;28;20095;-71
2024/04/04 01:19:53;;;;;;;8.85;2.60;;;;;;;11.09;100.00;100493.16;5080009;28;20044;-70
2024/04/04 01:22:40;;;;;;;8.27;2.60;;;;;;;11.09;100.00;100491.22;5100653;28;20088;-72
2024/04/04 01:25:27;;;;;;;7.05;2.45;;;;;;;11.08;100.00;100481.41;5091384;28;20028;-71
2024/04/04 01:28:14;;;;;;;9.15;2.92;;;;;;;11.05;100.00;100476.53;5066034;28;20369;-71
2024/04/04 01:31:02;;;;;;;10.38;2.80;;;;;;;11.07;100.00;100479.78;5065232;28;20083;-71
2024/04/04 01:33:49;;;;;;;12.00;2.97;;;;;;;11.05;100.00;100471.06;5056993;28;20040;-72
2024/04/04 01:36:36;;;;;;;7.15;2.45;;;;;;;11.04;100.00;100455.81;5069660;27;20055;-71
2024/04/04 01:39:23;;;;;;;9.20;2.90;;;;;;;11.03;100.00;100456.09;5086061;27;20054;-70
2024/04/04 01:42:10;;;;;;;9.13;2.33;;;;;;;11.01;100.00;100459.06;5073725;27;20071;-71
2024/04/04 01:44:57;;;;;;;10.18;2.85;;;;;;;11.02;100.00;100454.47;5083082;28;20042;-71
2024/04/04 01:47:44;;;;;;;12.02;2.88;;;;;;;11.01;100.00;100448.19;5071284;28;20036;-71
2024/04/04 01:50:31;;;;;;;10.48;3.10;;;;;;;10.99;100.00;100450.38;5042001;28;20047;-71
2024/04/04 01:53:18;;;;;;;7.53;3.13;;;;;;;10.96;100.00;100448.19;5081690;28;20071;-71
2024/04/04 01:56:05;;;;;;;10.77;2.70;;;;;;;10.98;100.00;100443.28;5098450;28;20043;-71
2024/04/04 01:58:52;;;;;;;10.18;3.00;;;;;;;10.99;100.00;100450.38;5083894;28;20036;-70
2024/04/04 02:01:39;;;;;;;10.02;2.95;;;;;;;10.98;100.00;100445.22;5078693;28;20110;-71
2024/04/04 02:04:26;;;;;;;7.15;2.45;;;;;;;10.97;100.00;100441.69;5081391;28;20479;-70
2024/04/04 02:07:13;;;;;;;7.80;2.63;;;;;;;10.96;100.00;100437.31;5077601;28;20046;-71
2024/04/04 02:10:01;;;;;;;9.85;2.67;;;;;;;10.94;100.00;100434.03;5050222;28;20040;-70
2024/04/04 02:12:48;;;;;;;11.50;3.10;;;;;;;10.90;100.00;100429.44;5050399;28;20044;-71
2024/04/04 02:15:39;;;;;;;8.07;2.55;;;;;;;10.91;100.00;100429.16;5078182;28;20048;-70
2024/04/04 02:18:26;;;;;;;8.70;2.90;;;;;;;10.94;100.00;100422.31;5064542;28;20074;-72
2024/04/04 02:21:13;;;;;;;9.82;2.53;;;;;;;10.88;100.00;100411.44;5067254;28;20060;-71
2024/04/04 02:24:00;;;;;;;9.23;2.80;;;;;;;10.89;100.00;100414.97;5049097;28;20036;-72
2024/04/04 02:26:48;;;;;;;7.72;2.70;;;;;;;10.87;100.00;100403.53;5097188;28;20123;-70
2024/04/04 02:29:35;;;;;;;6.80;2.33;;;;;;;10.87;100.00;100398.09;5054142;28;20040;-70
2024/04/04 02:32:22;;;;;;;9.05;2.97;;;;;;;10.88;100.00;100392.38;5095411;28;20073;-70
2024/04/04 02:35:09;;;;;;;6.90;2.35;;;;;;;10.90;100.00;100383.91;5077764;28;20403;-70
2024/04/04 02:37:57;;;;;;;8.25;2.92;;;;;;;10.94;100.00;100384.97;5076717;28;20036;-70
2024/04/04 02:40:44;;;;;;;6.07;2.00;;;;;;;10.97;100.00;100376.25;5095232;28;20067;-70
2024/04/04 02:43:34;;;;;;;7.63;2.50;;;;;;;11.00;100.00;100372.94;5070341;28;20044;-71
2024/04/04 02:46:21;;;;;;;7.35;2.13;;;;;;;10.99;100.00;100365.88;5083187;28;20043;-71
2024/04/04 02:49:08;;;;;;;7.03;2.30;;;;;;;10.98;100.00;100361.50;5067826;28;20127;-71
2024/04/04 02:51:55;;;;;;;7.22;2.35;;;;;;;10.96;100.00;100352.00;5061475;28;20131;-70
2024/04/04 02:54:42;;;;;;;7.20;2.17;;;;;;;10.94;100.00;100348.72;5066008;28;20579;-71
2024/04/04 02:57:29;;;;;;;6.75;1.92;;;;;;;10.94;100.00;100344.09;5084253;28;20043;-71
2024/04/04 03:00:17;;;;;;;5.13;2.17;;;;;;;10.91;100.00;100335.66;5100719;28;20079;-70
2024/04/04 03:03:04;;;;;;;6.63;2.13;;;;;;;10.94;100.00;100333.19;5098531;28;20112;-70
2024/04/04 03:05:51;;;;;;;7.38;2.38;;;;;;;10.88;100.00;100317.97;5100074;28;20039;-72
2024/04/04 03:08:38;;;;;;;7.72;2.50;;;;;;;10.85;100.00;100324.00;5025001;28;20113;-71
2024/04/04 03:11:25;;;;;;;9.13;2.75;;;;;;;10.84;100.00;100317.72;5081106;28;20123;-71
2024/04/04 03:14:12;;;;;;;5.25;2.00;;;;;;;10.82;100.00;100316.34;5100221;28;20445;-71
2024/04/04 03:16:59;;;;;;;7.40;2.40;;;;;;;10.76;100.00;100314.78;5088802;27;20402;-71
2024/04/04 03:19:46;;;;;;;8.40;2.80;;;;;;;10.76;100.00;100298.44;5091719;27;20092;-70
2024/04/04 03:22:33;;;;;;;8.38;2.70;;;;;;;10.76;100.00;100292.97;5103935;28;20101;-71
2024/04/04 03:25:20;;;;;;;5.53;2.42;;;;;;;10.75;100.00;100275.81;5079744;28;20131;-70
2024/04/04 03:28:07;;;;;;;6.40;2.20;;;;;;;10.77;100.00;100275.53;5064113;28;20032;-70
2024/04/04 03:30:54;;;;;;;6.40;2.20;;;;;;;10.78;100.00;100266.25;5083158;28;20048;-71
2024/04/04 03:33:41;;;;;;;6.15;2.25;;;;;;;10.78;100.00;100274.44;5082776;28;20075;-70
2024/04/04 03:36:28;;;;;;;5.13;2.15;;;;;;;10.77;100.00;100268.16;5083203;28;20097;-71
2024/04/04 03:39:16;;;;;;;6.70;2.17;;;;;;;10.76;100.00;100263.00;5086035;28;20484;-71
2024/04/04 03:42:03;;;;;;;7.45;2.50;;;;;;;10.78;100.00;100258.91;5100076;28;20039;-70
2024/04/04 03:44:54;;;;;;;7.80;2.25;;;;;;;10.79;100.00;100254.25;5069870;28;20502;-70
2024/04/04 03:47:41;;;;;;;6.20;2.20;;;;;;;10.78;100.00;100248.00;5082791;28;20462;-69
2024/04/04 03:50:28;;;;;;;8.15;2.63;;;;;;;10.78;100.00;100247.19;5085870;28;20514;-70
2024/04/04 03:53:15;;;;;;;5.50;2.10;;;;;;;10.77;100.00;100234.66;5100029;28;20042;-70
2024/04/04 03:56:03;;;;;;;6.78;2.20;;;;;;;10.75;100.00;100236.84;5099892;28;20075;-70
2024/04/04 03:58:50;;;;;;;6.45;2.22;;;;;;;10.76;100.00;100231.13;5058601;28;20075;-69
2024/04/04 04:01:37;;;;;;;6.65;2.15;;;;;;;10.78;100.00;100219.94;5078842;28;20044;-71
2024/04/04 04:04:24;;;;;;;4.72;1.98;;;;;;;10.78;100.00;100214.50;5092694;28;20043;-69
2024/04/04 04:07:11;;;;;;;6.07;2.05;;;;;;;10.77;100.00;100207.41;5071163;28;20035;-70
2024/04/04 04:09:58;;;;;;;4.40;2.05;;;;;;;10.77;100.00;100210.94;5098118;28;20126;-69
2024/04/04 04:12:45;;;;;;;3.88;1.77;;;;;;;10.80;100.00;100206.81;5086375;28;20098;-69
2024/04/04 04:15:32;;;;;;;5.97;2.42;;;;;;;10.79;100.00;100205.22;5081968;28;20048;-70
2024/04/04 04:18:19;;;;;;;5.53;1.98;;;;;;;10.80;100.00;100212.28;5086021;28;20446;-70
2024/04/04 04:21:21;;;;;;;5.07;2.28;;;;;;;10.83;100.00;100214.44;5084820;28;20059;-70
2024/04/04 04:24:08;;;;;;;6.15;2.28;;;;;;;10.82;100.00;100204.63;5099078;28;20043;-70
2024/04/04 04:26:55;;;;;;;6.45;2.25;;;;;;;10.85;100.00;100204.09;5054051;28;20032;-69
2024/04/04 04:29:44;;;;;;;6.18;2.40;;;;;;;10.86;100.00;100200.25;5077691;28;20488;-69
2024/04/04 04:32:31;;;;;;;5.40;2.20;;;;;;;10.86;100.00;100202.97;5090094;28;20048;-70
2024/04/04 04:35:22;;;;;;;7.18;2.28;;;;;;;10.89;100.00;100188.75;5078756;28;20456;-69
2024/04/04 04:38:09;;;;;;;4.35;1.98;;;;;;;10.92;100.00;100199.13;5052748;28;20557;-70
2024/04/04 04:41:04;;;;;;;4.50;1.80;;;;;;;10.91;100.00;100185.75;5078201;28;20051;-68
2024/04/04 04:43:50;;;;;;;7.88;2.20;;;;;;;10.95;100.00;100187.63;5092215;28;20044;-68
2024/04/04 04:46:37;;;;;;;11.63;2.50;;;;;;;10.94;100.00;100188.72;5079818;28;20075;-69
2024/04/04 04:49:24;;;;;;;4.82;1.70;;;;;;;10.93;100.00;100184.38;5078076;28;20135;-71
2024/04/04 04:52:11;;;;;;;5.30;2.40;;;;;;;10.95;100.00;100176.72;5063405;28;20113;-70
2024/04/04 04:54:59;;;;;;;4.15;2.08;;;;;;;10.97;100.00;100174.53;5049467;28;20105;-69
2024/04/04 04:57:46;;;;;;;4.97;2.10;;;;;;;10.98;100.00;100173.44;5061707;28;20490;-69
2024/04/04 05:00:33;;;;;;;5.00;2.13;;;;;;;10.97;100.00;100169.09;5082922;28;20096;-70
2024/04/04 05:03:21;;;;;;;5.32;2.10;;;;;;;10.98;100.00;100169.91;5083798;28;20127;-71
2024/04/04 05:06:08;;;;;;;7.28;2.38;;;;;;;10.99;100.00;100163.31;5096855;28;20407;-69
2024/04/04 05:08:55;;;;;;;6.28;2.13;;;;;;;11.00;100.00;100152.16;5066945;28;20043;-70
2024/04/04 05:11:43;;;;;;;5.40;2.00;;;;;;;11.02;100.00;100149.94;5091835;28;20043;-70
2024/04/04 05:14:30;;;;;;;6.70;1.88;;;;;;;11.04;100.00;100147.75;5098197;28;20380;-69
2024/04/04 05:17:17;;;;;;;4.82;1.88;;;;;;;11.08;100.00;100137.06;5066507;28;20039;-70
2024/04/04 05:20:05;;;;;;;4.70;1.92;;;;;;;11.08;100.00;100132.44;5084418;28;20046;-71
2024/04/04 05:22:52;;;;;;;8.52;2.40;;;;;;;11.09;100.00;100128.63;5098573;28;20098;-71
2024/04/04 05:25:39;;;;;;;7.03;2.67;;;;;;;11.09;100.00;100123.16;5093573;28;20043;-71
2024/04/04 05:28:26;;;;;;;9.13;2.42;;;;;;;11.13;100.00;100117.94;5071866;28;20036;-69
2024/04/04 05:31:13;;;;;;;6.85;2.50;;;;;;;11.14;100.00;100124.22;5067236;28;20040;-71
2024/04/04 05:34:01;;;;;;;8.00;2.65;;;;;;;11.17;100.00;100119.00;5067584;28;20044;-71
2024/04/04 05:36:48;;;;;;;10.85;3.30;;;;;;;11.16;100.00;100114.66;5100857;28;20036;-69
2024/04/04 05:39:35;;;;;;;7.25;3.03;;;;;;;11.16;100.00;100122.00;5089374;28;20119;-68
2024/04/04 05:42:22;;;;;;;8.80;2.97;;;;;;;11.21;100.00;100119.25;5054904;28;20389;-69
2024/04/04 05:45:09;;;;;;;12.13;2.70;;;;;;;11.21;100.00;100124.69;5108071;28;20043;-71
2024/04/04 05:47:56;;;;;;;8.38;2.50;;;;;;;11.21;100.00;100119.25;5055450;28;20097;-69
2024/04/04 05:50:43;;;;;;;12.30;2.50;;;;;;;11.22;100.00;100115.41;5079240;28;20044;-70
2024/04/04 05:53:31;;;;;;;11.85;2.90;;;;;;;11.22;100.00;100116.19;5077413;28;20051;-71
2024/04/04 05:56:18;;;;;;;6.85;2.28;;;;;;;11.25;100.00;100106.63;5077809;28;20066;-71
2024/04/04 05:59:05;;;;;;;8.48;2.67;;;;;;;11.26;100.00;100109.06;5080788;28;20044;-71
2024/04/04 06:01:52;;;;;;;8.65;2.80;;;;;;;11.25;100.00;100117.53;5065145;28;20420;-72
2024/04/04 06:04:39;;;;;;;8.80;2.53;;;;;;;11.26;100.00;100116.44;5065460;28;20135;-71
2024/04/04 06:07:26;;;;;;;7.70;2.65;;;;;;;11.28;100.00;100112.34;5091812;28;20035;-72
2024/04/04 06:10:14;;;;;;;7.90;2.50;;;;;;;11.30;100.00;100109.28;5076199;28;20035;-71
2024/04/04 06:13:03;;;;;;;7.47;2.47;;;;;;;11.33;100.00;100111.47;5097688;28;20039;-73
2024/04/04 06:15:54;;;;;;;8.15;2.58;;;;;;;11.38;100.00;100119.56;5071056;28;20079;-72
2024/04/04 06:18:41;;;;;;;8.10;2.60;;;;;;;11.38;100.00;100111.41;5083305;28;20043;-73
2024/04/04 06:21:28;;;;;;;7.75;2.47;;;;;;;11.40;100.00;100106.47;4382057;28;10000681;-73
2024/04/04 06:24:15;;;;;;;9.40;2.50;;;;;;;11.40;100.00;100098.28;5064663;28;20071;-72
2024/04/04 06:27:02;;;;;;;8.68;2.97;;;;;;;11.42;100.00;100106.16;5109957;27;20076;-73
2024/04/04 06:29:49;;;;;;;7.10;2.50;;;;;;;11.39;100.00;100118.47;5068523;28;20050;-72
2024/04/04 06:32:36;;;;;;;10.02;3.08;;;;;;;11.40;100.00;100106.47;5064026;28;20048;-72
2024/04/04 06:35:23;;;;;;;9.07;3.40;;;;;;;11.42;100.00;100115.16;5076969;28;20059;-72
2024/04/04 06:38:10;;;;;;;9.73;3.03;;;;;;;11.41;100.00;100110.81;5047407;28;20047;-73
2024/04/04 06:40:57;;;;;;;11.25;3.50;;;;;;;11.41;100.00;100112.72;5085006;28;20040;-72
2024/04/04 06:43:44;;;;;;;8.55;2.90;;;;;;;11.38;100.00;100111.41;5068268;28;20044;-72
2024/04/04 06:46:31;;;;;;;10.82;3.20;;;;;;;11.38;100.00;100119.56;5046949;28;20091;-72
2024/04/04 06:49:18;;;;;;;9.80;2.88;;;;;;;11.35;100.00;100125.59;5019401;28;20048;-72
2024/04/04 06:52:06;;;;;;;9.18;2.47;;;;;;;11.38;100.00;100122.31;5086902;28;20955;-73
2024/04/04 06:54:53;;;;;;;14.38;3.88;;;;;;;11.50;100.00;100116.44;5060420;28;20040;-73
2024/04/04 06:57:40;;;;;;;15.40;4.28;;;;;;;11.52;100.00;100122.44;5045992;28;20633;-73
2024/04/04 07:00:27;;;;;;;10.38;3.42;;;;;;;11.58;100.00;100120.44;5040097;28;20141;-73
2024/04/04 07:03:20;;;;;;;8.95;3.63;;;;;;;11.54;100.00;100116.66;5063614;28;20048;-72
2024/04/04 07:06:07;;;;;;;9.50;3.20;;;;;;;11.56;100.00;100117.19;5065619;28;20069;-72
2024/04/04 07:08:55;;;;;;;8.70;2.97;;;;;;;11.56;100.00;100118.00;5081958;28;20051;-71
2024/04/04 07:11:42;;;;;;;10.02;2.95;;;;;;;11.55;100.00;100123.75;5050874;28;20393;-70
2024/04/04 07:14:28;;;;;;;9.88;2.88;;;;;;;11.54;100.00;100116.66;5078929;28;20155;-71
2024/04/04 07:17:16;;;;;;;6.60;2.30;;;;;;;11.50;100.00;100122.69;5089791;28;20089;-73
2024/04/04 07:20:05;;;;;;;11.68;3.38;;;;;;;11.57;100.00;100121.53;5060968;28;20036;-70
2024/04/04 07:22:52;;;;;;;7.53;2.80;;;;;;;11.56;100.00;100130.81;5079692;28;20047;-68
2024/04/04 07:25:39;;;;;;;8.18;2.65;;;;;;;11.58;100.00;100120.44;5071696;28;20256;-70
2024/04/04 07:28:28;;;;;;;7.38;2.72;;;;;;;11.57;100.00;100105.16;5065218;28;20047;-70
2024/04/04 07:31:15;;;;;;;8.85;3.13;;;;;;;11.58;100.00;100090.41;5087173;28;20056;-71
2024/04/04 07:34:02;;;;;;;5.65;2.40;;;;;;;11.60;100.00;100099.13;5085423;28;20154;-71
2024/04/04 07:36:49;;;;;;;7.88;2.70;;;;;;;11.64;100.00;100102.88;5107965;28;20052;-72
2024/04/04 07:39:36;;;;;;;7.03;2.50;;;;;;;11.67;100.00;100107.78;5092187;28;20555;-71
2024/04/04 07:42:26;;;;;;;8.30;2.97;;;;;;;11.68;100.00;100106.66;5060941;28;20445;-70
2024/04/04 07:45:13;;;;;;;7.90;2.60;;;;;;;11.61;100.00;100101.56;5099299;28;20043;-71
2024/04/04 07:48:01;;;;;;;11.70;3.65;;;;;;;11.69;100.00;100090.00;5086660;28;20511;-71
2024/04/04 07:50:48;;;;;;;9.90;2.78;;;;;;;11.64;100.00;100098.25;5073044;28;20056;-70
2024/04/04 07:53:35;;;;;;;11.27;3.25;;;;;;;11.63;100.00;100104.81;5087454;28;20047;-71
2024/04/04 07:56:22;;;;;;;8.95;2.45;;;;;;;11.60;100.00;100121.78;5083909;28;20035;-70
2024/04/04 07:59:09;;;;;;;8.00;2.63;;;;;;;11.59;100.00;100132.97;5072454;28;20047;-71
2024/04/04 08:01:56;;;;;;;13.25;3.80;;;;;;;11.65;100.00;100129.06;5072090;28;20499;-71
2024/04/04 08:04:43;;;;;;;7.65;2.42;;;;;;;11.62;100.00;100132.41;5083743;28;20131;-74
2024/04/04 08:07:35;;;;;;;7.18;2.53;;;;;;;11.63;100.00;100142.19;5071993;28;20058;-71
2024/04/04 08:10:22;;;;;;;15.18;4.20;;;;;;;11.63;100.00;100142.19;5098114;28;20134;-71
2024/04/04 08:13:11;;;;;;;9.52;3.42;;;;;;;11.60;100.00;100149.06;5056604;28;20075;-71
2024/04/04 08:15:58;;;;;;;18.83;4.82;;;;;;;11.63;100.00;100148.47;5086226;28;20496;-70
2024/04/04 08:18:45;;;;;;;19.23;5.95;;;;;;;11.68;100.00;100145.66;5085228;28;20048;-70
2024/04/04 08:21:32;;;;;;;11.38;3.85;;;;;;;11.66;100.00;100150.59;5050021;28;20380;-71
2024/04/04 08:24:19;;;;;;;9.25;3.00;;;;;;;11.73;100.00;100158.44;5074033;28;20084;-71
2024/04/04 08:27:06;;;;;;;9.55;2.70;;;;;;;11.70;100.00;100159.03;5097935;28;20071;-70
2024/04/04 08:29:53;;;;;;;11.20;3.33;;;;;;;11.74;100.00;100162.81;5097170;28;20100;-71
2024/04/04 08:32:40;;;;;;;9.52;3.60;;;;;;;11.74;100.00;100165.53;5078137;28;20051;-71
2024/04/04 08:35:27;;;;;;;7.57;2.70;;;;;;;11.73;100.00;100174.81;5054057;28;20113;-70
2024/04/04 08:38:15;;;;;;;13.27;4.20;;;;;;;11.78;100.00;100188.41;5053235;28;20440;-71
2024/04/04 08:41:07;;;;;;;6.97;2.60;;;;;;;11.75;100.00;100178.06;5099685;27;20103;-71
2024/04/04 08:43:56;;;;;;;8.02;2.70;;;;;;;11.79;100.00;100176.38;5105640;27;20047;-71
2024/04/04 08:46:45;;;;;;;13.95;4.53;;;;;;;11.82;100.00;100173.06;5106204;27;20043;-69
2024/04/04 08:49:33;;;;;;;9.32;3.33;;;;;;;11.84;100.00;100176.31;5104475;27;20043;-72
2024/04/04 08:52:21;;;;;;;10.35;3.17;;;;;;;11.82;100.00;100173.06;5051182;28;20543;-71
2024/04/04 08:55:08;;;;;;;11.88;3.38;;;;;;;11.90;100.00;100186.09;5054189;28;20055;-71
2024/04/04 08:57:55;;;;;;;15.52;4.45;;;;;;;11.97;100.00;100179.47;5037916;28;20044;-71
2024/04/04 09:00:43;;;;;;;8.70;2.85;;;;;;;12.02;100.00;100177.47;5053110;28;20063;-69
2024/04/04 09:03:30;;;;;;;10.50;3.28;;;;;;;12.04;100.00;100177.19;5110895;27;20058;-71
2024/04/04 09:06:19;;;;;;;5.35;2.38;;;;;;;12.02;100.00;100182.94;5076773;27;20043;-69
2024/04/04 09:09:08;;;;;;;7.40;2.58;;;;;;;12.01;100.00;100191.44;5092286;27;20515;-71
2024/04/04 09:11:55;;;;;;;11.70;3.90;;;;;;;12.12;100.00;100187.44;5106181;27;20113;-70
2024/04/04 09:14:42;;;;;;;6.70;2.67;;;;;;;12.24;100.00;100185.13;5087745;28;20507;-68
2024/04/04 09:17:30;;;;;;;9.30;3.40;;;;;;;12.19;100.00;100176.16;5084115;28;20108;-69
2024/04/04 09:20:19;;;;;;;12.60;4.13;;;;;;;12.22;100.00;100172.84;5084642;28;20483;-70
2024/04/04 09:23:10;;;;;;;10.20;3.88;;;;;;;12.21;100.00;100176.69;5045097;28;20037;-69
2024/04/04 09:25:58;;;;;;;9.05;2.55;;;;;;;12.21;100.00;100187.59;5048549;28;20036;-73
2024/04/04 09:28:45;;;;;;;12.55;4.55;;;;;;;12.31;100.00;100185.56;5071286;28;20047;-70
2024/04/04 09:31:37;;;;;;;9.57;2.85;;;;;;;12.43;100.00;100187.81;5055926;28;20070;-71
2024/04/04 09:34:25;;;;;;;9.80;2.97;;;;;;;12.33;100.00;100194.25;5040344;28;20087;-70
2024/04/04 09:37:13;;;;;;;5.85;2.47;;;;;;;12.27;100.00;100187.25;5053476;28;20480;-71
2024/04/04 09:40:00;;;;;;;12.00;3.95;;;;;;;12.38;100.00;100184.38;5041863;28;20043;-71
2024/04/04 09:42:48;;;;;;;9.85;2.30;;;;;;;12.38;100.00;100181.63;5108239;28;20050;-74
2024/04/04 09:45:37;;;;;;;7.05;2.33;;;;;;;12.24;100.00;100179.66;5080051;28;20090;-77
2024/04/04 09:48:24;;;;;;;4.30;2.20;;;;;;;12.19;100.00;100201.53;5049992;28;20040;-71
2024/04/04 09:51:12;;;;;;;7.05;2.28;;;;;;;12.18;100.00;100202.66;5062270;28;20044;-71
2024/04/04 09:54:00;;;;;;;10.02;2.40;;;;;;;12.25;100.00;100211.31;5054540;28;20040;-68
2024/04/04 09:56:50;;;;;;;6.55;1.88;;;;;;;12.24;100.00;100226.09;5062341;28;20068;-71
2024/04/04 09:59:47;;;;;;;6.25;1.90;;;;;;;12.28;100.00;100221.63;5076037;28;20047;-71
2024/04/04 10:02:37;;;;;;;5.03;2.15;;;;;;;12.29;100.00;100223.28;5082689;28;20080;-71
2024/04/04 10:05:38;;;;;;;4.28;1.73;;;;;;;12.34;100.00;100228.66;5065869;28;20399;-70
2024/04/04 10:08:30;;;;;;;5.78;2.40;;;;;;;12.45;100.00;100231.25;5071549;28;20053;-72
2024/04/04 10:11:29;;;;;;;8.48;2.20;;;;;;;12.45;100.00;100236.72;5074976;28;20496;-70
2024/04/04 10:14:21;;;;;;;8.60;2.72;;;;;;;12.52;100.00;100239.91;5063412;28;20067;-72
2024/04/04 10:17:09;;;;;;;10.03;2.83;;;;;;;12.59;100.00;100245.81;4371369;28;10000296;-71
2024/04/04 10:19:56;;;;;;;6.35;1.90;;;;;;;12.61;100.00;100243.59;5086655;28;20657;-71
2024/04/04 10:22:44;;;;;;;5.78;2.22;;;;;;;12.65;100.00;100252.84;5074262;28;20113;-70
2024/04/04 10:25:31;;;;;;;6.15;2.20;;;;;;;12.72;100.00;100244.25;5060217;28;20048;-70
2024/04/04 10:28:18;;;;;;;4.47;1.92;;;;;;;12.75;100.00;100249.94;5046150;28;20051;-69
2024/04/04 10:31:09;;;;;;;5.90;2.53;;;;;;;12.76;100.00;100253.47;5062787;28;20067;-72
2024/04/04 10:34:09;;;;;;;5.40;2.40;;;;;;;12.81;100.00;100256.13;5091675;28;20043;-71
2024/04/04 10:36:56;;;;;;;5.40;2.15;;;;;;;12.86;100.00;100249.78;5094820;28;20070;-72
2024/04/04 10:39:43;;;;;;;5.78;2.28;;;;;;;12.88;100.00;100242.91;5061198;28;20095;-72
2024/04/04 10:42:31;;;;;;;5.60;2.50;;;;;;;13.00;100.00;100245.19;5074534;28;20134;-73
2024/04/04 10:45:23;;;;;;;5.72;2.25;;;;;;;13.05;100.00;100257.97;5046048;28;20048;-71
2024/04/04 10:48:12;;;;;;;6.53;2.47;;;;;;;13.14;100.00;100245.22;5074045;28;20052;-73
2024/04/04 10:50:59;;;;;;;6.70;2.08;;;;;;;13.16;100.00;100249.28;5052419;28;20108;-71
2024/04/04 10:53:47;;;;;;;4.68;1.75;;;;;;;13.13;100.00;100260.00;5067589;28;20472;-73
2024/04/04 10:56:34;;;;;;;6.63;2.42;;;;;;;13.13;100.00;100249.06;5059353;28;20078;-71
2024/04/04 10:59:21;;;;;;;4.93;1.90;;;;;;;13.14;100.00;100256.97;5026616;28;20544;-74
2024/04/04 11:02:08;;;;;;;6.63;2.42;;;;;;;13.16;100.00;100260.22;5038800;28;20045;-71
2024/04/04 11:04:57;;;;;;;6.00;2.10;;;;;;;13.19;100.00;100259.63;5041201;28;20508;-71
2024/04/04 11:07:45;;;;;;;6.63;2.20;;;;;;;13.30;100.00;100254.00;5041161;28;20048;-71
2024/04/04 11:10:33;;;;;;;5.78;2.15;;;;;;;13.37;100.00;100268.94;5072179;28;20063;-71
2024/04/04 11:13:20;;;;;;;9.32;2.15;;;;;;;13.43;100.00;100264.19;5053454;28;20056;-72
2024/04/04 11:16:09;;;;;;;7.15;2.47;;;;;;;13.48;100.00;100271.50;5043386;28;20040;-74
2024/04/04 11:19:00;;;;;;;9.90;2.92;;;;;;;13.50;100.00;100281.03;5069691;28;20096;-73
2024/04/04 11:21:47;;;;;;;8.80;2.70;;;;;;;13.52;100.00;100276.06;5064863;28;20040;-74
2024/04/04 11:24:34;;;;;;;8.13;2.38;;;;;;;13.56;100.00;100288.00;5029855;28;20059;-72
2024/04/04 11:27:21;;;;;;;10.02;2.78;;;;;;;13.59;100.00;100276.50;5069503;28;20129;-74
2024/04/04 11:30:10;;;;;;;7.78;2.78;;;;;;;13.55;100.00;100302.81;5041707;28;20048;-71
2024/04/04 11:32:57;;;;;;;10.45;2.30;;;;;;;13.55;100.00;100288.34;5064600;28;20064;-71
2024/04/04 11:35:45;;;;;;;12.38;3.30;;;;;;;13.64;100.00;100303.75;5049471;28;20048;-70
2024/04/04 11:38:32;;;;;;;8.50;2.65;;;;;;;13.73;100.00;100297.59;5043997;28;20048;-72
2024/04/04 11:41:19;;;;;;;12.10;3.45;;;;;;;13.74;100.00;100302.78;5078666;28;20044;-70
2024/04/04 11:44:06;;;;;;;10.90;3.15;;;;;;;13.72;100.00;100310.47;5072370;28;21733;-71
2024/04/04 11:46:54;;;;;;;15.00;3.60;;;;;;;13.68;100.00;100325.88;5058542;28;20123;-70
2024/04/04 11:49:41;;;;;;;11.75;3.28;;;;;;;13.64;100.00;100333.88;5071292;28;20102;-70
2024/04/04 11:52:28;;;;;;;15.63;3.40;;;;;;;13.62;100.00;100327.09;5072095;28;20446;-72
2024/04/04 11:55:15;;;;;;;12.80;3.95;;;;;;;13.61;100.00;100331.75;5101022;28;20089;-70
2024/04/04 11:58:02;;;;;;;13.13;3.65;;;;;;;13.68;100.00;100327.78;5031078;28;20119;-70
2024/04/04 12:00:49;;;;;;;11.55;3.17;;;;;;;13.74;100.00;100329.34;5085418;28;20039;-71
2024/04/04 12:03:36;;;;;;;11.23;2.80;;;;;;;13.79;100.00;100321.03;5071216;28;20058;-71
2024/04/04 12:06:24;;;;;;;14.13;3.78;;;;;;;13.79;100.00;100324.56;5071288;28;20035;-71
2024/04/04 12:09:13;;;;;;;14.55;3.38;;;;;;;13.80;100.00;100339.88;5073753;28;20048;-69
2024/04/04 12:12:00;;;;;;;14.73;3.65;;;;;;;13.79;100.00;100326.50;5065136;28;20105;-70
2024/04/04 12:14:47;;;;;;;9.82;3.00;;;;;;;13.78;100.00;100330.34;5065239;28;20488;-70
2024/04/04 12:17:39;;;;;;;11.48;3.30;;;;;;;13.80;100.00;100323.44;5085571;28;20052;-71
2024/04/04 12:20:26;;;;;;;13.13;3.60;;;;;;;13.84;100.00;100331.88;5072072;28;20430;-71
2024/04/04 12:23:13;;;;;;;15.73;3.60;;;;;;;13.87;100.00;100325.78;5071685;28;20432;-71
2024/04/04 12:26:01;;;;;;;11.50;3.17;;;;;;;13.87;100.00;100342.22;5086075;28;20056;-70
2024/04/04 12:28:52;;;;;;;12.88;3.83;;;;;;;13.87;100.00;100336.75;5085842;28;20044;-70
2024/04/04 12:31:40;;;;;;;11.85;3.22;;;;;;;13.93;100.00;100343.78;5085046;28;20055;-70
2024/04/04 12:34:26;;;;;;;14.43;3.58;;;;;;;14.01;100.00;100345.81;5060192;28;20063;-69
2024/04/04 12:37:14;;;;;;;14.98;3.88;;;;;;;14.04;100.00;100339.72;5038661;28;20050;-71
2024/04/04 12:40:01;;;;;;;17.67;3.70;;;;;;;14.06;100.00;100337.47;5066155;28;20135;-70
2024/04/04 12:42:48;;;;;;;14.60;3.78;;;;;;;14.02;100.00;100347.44;5080065;28;20772;-70
2024/04/04 12:45:35;;;;;;;17.83;3.92;;;;;;;13.94;100.00;100356.34;5071866;28;20403;-70
2024/04/04 12:48:22;;;;;;;18.40;4.18;;;;;;;13.88;100.00;100352.09;5068220;28;20044;-71